createdAt,value
2023-01-30T00:01:26.057Z,98153.47
2023-01-30T00:03:53.225Z,98141.25
2023-01-30T00:06:20.485Z,98152.63
2023-01-30T00:08:47.625Z,98138.78
2023-01-30T00:11:16.617Z,98150.88
2023-01-30T00:13:43.966Z,98151.63
2023-01-30T00:16:11.295Z,98143.06
2023-01-30T00:18:39.751Z,98152.91
2023-01-30T00:21:09.206Z,98141.34
2023-01-30T00:23:36.753Z,98171.00
2023-01-30T00:26:04.815Z,98147.97
2023-01-30T00:28:32.023Z,98138.44
2023-01-30T00:30:59.336Z,98122.66
2023-01-30T00:33:26.966Z,98120.72
2023-01-30T00:35:55.595Z,98124.03
2023-01-30T00:38:23.077Z,98106.78
2023-01-30T00:40:50.501Z,98113.72
2023-01-30T00:43:38.120Z,98114.81
2023-01-30T00:46:31.404Z,98106.66
2023-01-30T00:48:58.445Z,98111.25
2023-01-30T00:51:25.484Z,98092.78
2023-01-30T00:53:52.535Z,98098.16
2023-01-30T00:56:19.746Z,98090.00
2023-01-30T00:58:46.855Z,98094.19
2023-01-30T01:01:14.005Z,98095.25
2023-01-30T01:03:41.070Z,98103.72
2023-01-30T01:06:08.323Z,98104.78
2023-01-30T01:08:35.723Z,98095.88
2023-01-30T01:11:03.329Z,98111.09
2023-01-30T01:13:30.954Z,98085.75
2023-01-30T01:15:58.264Z,98080.41
2023-01-30T01:18:25.636Z,98082.34
2023-01-30T01:20:52.805Z,98077.28
2023-01-30T01:23:20.161Z,98063.00
2023-01-30T01:25:47.273Z,98046.47
2023-01-30T01:28:14.424Z,98048.84
2023-01-30T01:30:41.533Z,98044.22
2023-01-30T01:33:08.767Z,98032.63
2023-01-30T01:35:40.734Z,98021.28
2023-01-30T01:38:08.029Z,98014.72
2023-01-30T01:40:53.641Z,98005.94
2023-01-30T01:43:24.105Z,97997.44
2023-01-30T01:45:55.189Z,97999.03
2023-01-30T01:48:27.095Z,97977.34
2023-01-30T01:50:58.446Z,97977.97
2023-01-30T01:53:30.001Z,97970.50
2023-01-30T01:55:59.428Z,97960.72
2023-01-30T01:58:31.253Z,97941.94
2023-01-30T02:00:59.530Z,97926.72
2023-01-30T02:03:29.398Z,97922.84
2023-01-30T02:06:00.050Z,97936.13
2023-01-30T02:08:37.285Z,97926.75
2023-01-30T02:11:28.771Z,97920.78
2023-01-30T02:13:57.319Z,97918.44
2023-01-30T02:16:24.371Z,97924.41
2023-01-30T02:18:52.032Z,97913.09
2023-01-30T02:21:42.776Z,97894.59
2023-01-30T02:24:42.723Z,97897.56
2023-01-30T02:27:47.742Z,97883.59
2023-01-30T02:30:48.928Z,97912.53
2023-01-30T02:33:33.123Z,97906.28
2023-01-30T02:36:26.071Z,97889.88
2023-01-30T02:39:26.644Z,97906.56
2023-01-30T02:42:23.757Z,97916.28
2023-01-30T02:44:59.379Z,97908.09
2023-01-30T02:47:36.526Z,97896.00
2023-01-30T02:50:17.475Z,97888.25
2023-01-30T02:52:44.586Z,97904.22
2023-01-30T02:55:26.800Z,97889.88
2023-01-30T02:57:54.171Z,97881.53
2023-01-30T03:00:39.836Z,97883.63
2023-01-30T03:03:26.363Z,97879.59
2023-01-30T03:06:25.281Z,97862.28
2023-01-30T03:09:14.566Z,97861.84
2023-01-30T03:11:49.502Z,97846.91
2023-01-30T03:14:26.275Z,97844.97
2023-01-30T03:16:55.177Z,97841.38
2023-01-30T03:19:22.866Z,97834.97
2023-01-30T03:21:49.975Z,97826.00
2023-01-30T03:24:17.450Z,97821.81
2023-01-30T03:26:49.117Z,97817.94
2023-01-30T03:29:16.267Z,97792.56
2023-01-30T03:31:43.389Z,97794.03
2023-01-30T03:34:10.513Z,97783.16
2023-01-30T03:36:37.713Z,97791.50
2023-01-30T03:39:04.959Z,97802.69
2023-01-30T03:41:32.045Z,97803.72
2023-01-30T03:43:59.083Z,97779.69
2023-01-30T03:46:26.157Z,97766.72
2023-01-30T03:48:53.298Z,97776.25
2023-01-30T03:51:20.429Z,97782.38
2023-01-30T03:53:47.511Z,97784.59
2023-01-30T03:56:14.614Z,97780.72
2023-01-30T03:58:41.780Z,97774.00
2023-01-30T04:01:08.913Z,97775.47
2023-01-30T04:03:36.022Z,97779.94
2023-01-30T04:06:03.220Z,97772.75
2023-01-30T04:08:30.313Z,97759.88
2023-01-30T04:10:57.397Z,97769.75
2023-01-30T04:13:24.482Z,97760.47
2023-01-30T04:15:51.512Z,97747.59
2023-01-30T04:18:18.564Z,97744.47
2023-01-30T04:20:45.591Z,97737.16
2023-01-30T04:23:12.687Z,97753.28
2023-01-30T04:25:39.760Z,97743.56
2023-01-30T04:28:06.816Z,97741.91
2023-01-30T04:30:34.026Z,97738.31
2023-01-30T04:33:01.130Z,97743.22
2023-01-30T04:35:28.163Z,97742.91
2023-01-30T04:37:55.182Z,97730.94
2023-01-30T04:40:22.242Z,97725.09
2023-01-30T04:42:49.289Z,97708.38
2023-01-30T04:45:16.691Z,97697.03
2023-01-30T04:47:43.952Z,97700.75
2023-01-30T04:50:11.138Z,97688.34
2023-01-30T04:52:39.861Z,97685.22
2023-01-30T04:55:07.289Z,97677.88
2023-01-30T04:57:34.314Z,97663.34
2023-01-30T05:00:01.503Z,97685.31
2023-01-30T05:02:28.566Z,97683.19
2023-01-30T05:04:55.672Z,97670.03
2023-01-30T05:07:22.894Z,97663.00
2023-01-30T05:09:50.033Z,97668.66
2023-01-30T05:12:17.112Z,97656.84
2023-01-30T05:14:44.162Z,97651.78
2023-01-30T05:17:11.418Z,97658.63
2023-01-30T05:19:38.487Z,97635.44
2023-01-30T05:22:05.541Z,97639.44
2023-01-30T05:24:32.611Z,97629.91
2023-01-30T05:26:59.714Z,97614.31
2023-01-30T05:29:26.774Z,97610.69
2023-01-30T05:31:53.853Z,97604.38
2023-01-30T05:34:20.882Z,97590.66
2023-01-30T05:36:48.016Z,97610.41
2023-01-30T05:39:15.083Z,97602.59
2023-01-30T05:41:42.125Z,97592.50
2023-01-30T05:44:11.018Z,97585.28
2023-01-30T05:46:38.745Z,97583.03
2023-01-30T05:49:07.402Z,97593.16
2023-01-30T05:51:34.486Z,97575.31
2023-01-30T05:54:01.584Z,97566.81
2023-01-30T05:56:30.405Z,97560.22
2023-01-30T05:58:57.856Z,97566.88
2023-01-30T06:01:25.404Z,97576.75
2023-01-30T06:03:53.356Z,97558.19
2023-01-30T06:06:20.832Z,97547.22
2023-01-30T06:08:48.422Z,97550.84
2023-01-30T06:11:16.853Z,97552.06
2023-01-30T06:13:44.222Z,97538.13
2023-01-30T06:16:12.844Z,97535.69
2023-01-30T06:18:40.401Z,97528.84
2023-01-30T06:21:07.938Z,97552.53
2023-01-30T06:23:35.356Z,97542.03
2023-01-30T06:26:04.954Z,97530.78
2023-01-30T06:28:32.984Z,97538.66
2023-01-30T06:31:00.296Z,97532.09
2023-01-30T06:33:27.481Z,97522.59
2023-01-30T06:35:54.770Z,97535.16
2023-01-30T06:38:21.835Z,97535.16
2023-01-30T06:40:50.287Z,97522.69
2023-01-30T06:43:17.760Z,97521.50
2023-01-30T06:45:44.977Z,97534.31
2023-01-30T06:48:12.089Z,97552.97
2023-01-30T06:50:39.358Z,97525.81
2023-01-30T06:53:07.531Z,97541.53
2023-01-30T06:55:35.998Z,97530.03
2023-01-30T06:58:05.591Z,97554.81
2023-01-30T07:00:33.589Z,97545.03
2023-01-30T07:03:00.714Z,97550.34
2023-01-30T07:05:28.978Z,97524.53
2023-01-30T07:07:56.279Z,97533.63
2023-01-30T07:10:23.684Z,97535.84
2023-01-30T07:12:50.802Z,97506.03
2023-01-30T07:15:18.230Z,97523.66
2023-01-30T07:17:45.427Z,97531.06
2023-01-30T07:20:12.756Z,97514.47
2023-01-30T07:22:39.867Z,97522.34
2023-01-30T07:25:07.416Z,97523.06
2023-01-30T07:27:34.567Z,97523.16
2023-01-30T07:30:02.065Z,97528.00
2023-01-30T07:32:29.093Z,97514.50
2023-01-30T07:34:56.112Z,97501.03
2023-01-30T07:37:23.206Z,97507.91
2023-01-30T07:39:50.244Z,97494.72
2023-01-30T07:42:17.365Z,97511.91
2023-01-30T07:44:44.396Z,97517.81
2023-01-30T07:47:11.455Z,97518.84
2023-01-30T07:49:38.531Z,97506.13
2023-01-30T07:52:05.707Z,97521.06
2023-01-30T07:54:32.741Z,97512.03
2023-01-30T07:57:00.099Z,97518.47
2023-01-30T07:59:27.583Z,97513.34
2023-01-30T08:01:54.853Z,97513.81
2023-01-30T08:04:21.950Z,97514.19
2023-01-30T08:06:49.104Z,97505.84
2023-01-30T08:09:16.156Z,97508.94
2023-01-30T08:11:43.259Z,97521.84
2023-01-30T08:14:11.069Z,97521.03
2023-01-30T08:16:39.049Z,97524.13
2023-01-30T08:19:06.336Z,97528.44
2023-01-30T08:21:33.392Z,97526.66
2023-01-30T08:24:01.492Z,97526.19
2023-01-30T08:26:28.692Z,97538.25
2023-01-30T08:28:56.044Z,97518.53
2023-01-30T08:31:23.137Z,97510.25
2023-01-30T08:33:50.256Z,97511.75
2023-01-30T08:36:17.350Z,97518.00
2023-01-30T08:38:44.699Z,97506.88
2023-01-30T08:41:12.427Z,97534.72
2023-01-30T08:43:39.527Z,97518.09
2023-01-30T08:46:06.576Z,97533.34
2023-01-30T08:48:47.329Z,97516.31
2023-01-30T08:51:15.891Z,97511.28
2023-01-30T08:53:42.955Z,97519.25
2023-01-30T08:56:10.090Z,97504.91
2023-01-30T08:58:37.319Z,97504.69
2023-01-30T09:01:07.551Z,97497.63
2023-01-30T09:03:35.456Z,97492.78
2023-01-30T09:06:03.935Z,97491.91
2023-01-30T09:08:31.029Z,97474.06
2023-01-30T09:10:59.800Z,97485.38
2023-01-30T09:13:27.091Z,97486.84
2023-01-30T09:15:54.448Z,97491.56
2023-01-30T09:18:21.546Z,97512.44
2023-01-30T09:20:48.792Z,97510.03
2023-01-30T09:23:16.062Z,97503.22
2023-01-30T09:25:46.760Z,97516.78
2023-01-30T09:28:14.697Z,97522.91
2023-01-30T09:30:42.038Z,97516.50
2023-01-30T09:33:09.122Z,97503.75
2023-01-30T09:35:36.155Z,97506.97
2023-01-30T09:38:04.714Z,97497.72
2023-01-30T09:40:32.556Z,97500.69
2023-01-30T09:43:31.434Z,97499.03
2023-01-30T09:46:04.784Z,97506.16
2023-01-30T09:48:48.175Z,97511.31
2023-01-30T09:51:33.584Z,97517.53
2023-01-30T09:54:21.971Z,97506.06
2023-01-30T09:56:56.941Z,97521.84
2023-01-30T09:59:30.557Z,97523.56
2023-01-30T10:02:13.059Z,97510.81
2023-01-30T10:04:59.235Z,97498.47
2023-01-30T10:08:16.106Z,97502.09
2023-01-30T10:10:55.037Z,97496.19
2023-01-30T10:13:39.826Z,97500.53
2023-01-30T10:16:27.341Z,97514.47
2023-01-30T10:19:16.074Z,97493.00
2023-01-30T10:22:23.771Z,97480.00
2023-01-30T10:25:13.198Z,97506.94
2023-01-30T10:27:49.014Z,97496.69
2023-01-30T10:30:17.237Z,97488.78
2023-01-30T10:32:58.677Z,97483.28
2023-01-30T10:35:31.235Z,97488.13
2023-01-30T10:38:05.068Z,97484.91
2023-01-30T10:40:42.639Z,97468.00
2023-01-30T10:43:25.955Z,97465.81
2023-01-30T10:46:18.613Z,97468.78
2023-01-30T10:48:54.576Z,97468.59
2023-01-30T10:51:30.619Z,97462.97
2023-01-30T10:54:14.008Z,97460.34
2023-01-30T10:57:03.223Z,97471.22
2023-01-30T10:59:50.357Z,97469.50
2023-01-30T11:02:26.245Z,97470.50
2023-01-30T11:05:02.839Z,97472.22
2023-01-30T11:07:32.041Z,97475.88
2023-01-30T11:09:59.793Z,97484.69
2023-01-30T11:12:26.991Z,97479.50
2023-01-30T11:15:04.003Z,97477.00
2023-01-30T11:17:35.411Z,97483.31
2023-01-30T11:20:25.931Z,97480.09
2023-01-30T11:23:05.303Z,97473.97
2023-01-30T11:25:32.538Z,97472.25
2023-01-30T11:28:05.409Z,97465.56
2023-01-30T11:30:36.723Z,97459.63
2023-01-30T11:33:12.815Z,97463.53
2023-01-30T11:35:44.348Z,97461.31
2023-01-30T11:38:32.707Z,97464.00
2023-01-30T11:41:02.653Z,97470.13
2023-01-30T11:43:29.755Z,97471.81
2023-01-30T11:45:57.937Z,97462.44
2023-01-30T11:48:33.467Z,97471.00
2023-01-30T11:51:18.041Z,97466.81
2023-01-30T11:53:47.516Z,97471.47
2023-01-30T11:56:42.667Z,97460.69
2023-01-30T11:59:28.408Z,97469.06
2023-01-30T12:02:23.628Z,97461.22
2023-01-30T12:04:54.491Z,97461.53
2023-01-30T12:07:29.626Z,97445.41
2023-01-30T12:09:58.325Z,97451.13
2023-01-30T12:12:44.190Z,97457.59
2023-01-30T12:15:27.003Z,97440.53
2023-01-30T12:18:12.871Z,97448.19
2023-01-30T12:20:59.584Z,97449.50
2023-01-30T12:23:51.284Z,97447.84
2023-01-30T12:26:21.096Z,97444.47
2023-01-30T12:28:53.974Z,97432.03
2023-01-30T12:31:43.166Z,97425.00
2023-01-30T12:34:10.566Z,97421.59
2023-01-30T12:37:00.285Z,97410.63
2023-01-30T12:39:48.165Z,97412.56
2023-01-30T12:42:28.327Z,97397.59
2023-01-30T12:45:06.201Z,97406.41
2023-01-30T12:47:55.923Z,97404.94
2023-01-30T12:50:33.472Z,97410.31
2023-01-30T12:53:36.605Z,97392.41
2023-01-30T12:56:34.321Z,97400.50
2023-01-30T12:59:20.656Z,97387.75
2023-01-30T13:01:56.976Z,97395.38
2023-01-30T13:04:56.364Z,97396.91
2023-01-30T13:07:54.425Z,97393.97
2023-01-30T13:10:50.588Z,97410.22
2023-01-30T13:13:19.536Z,97409.72
2023-01-30T13:16:04.542Z,97409.53
2023-01-30T13:18:52.700Z,97406.81
2023-01-30T13:21:30.124Z,97402.66
2023-01-30T13:24:03.540Z,97386.47
2023-01-30T13:26:35.289Z,97401.16
2023-01-30T13:29:30.049Z,97403.66
2023-01-30T13:32:01.240Z,97413.47
2023-01-30T13:34:33.696Z,97411.50
2023-01-30T13:37:15.020Z,97418.38
2023-01-30T13:39:51.216Z,97407.31
2023-01-30T13:42:41.178Z,97410.00
2023-01-30T13:45:21.905Z,97406.09
2023-01-30T13:48:06.698Z,97404.13
2023-01-30T13:50:50.707Z,97414.66
2023-01-30T13:53:29.730Z,97408.31
2023-01-30T13:56:27.049Z,97408.56
2023-01-30T13:59:21.933Z,97411.50
2023-01-30T14:02:04.676Z,97420.63
2023-01-30T14:04:41.022Z,97402.19
2023-01-30T14:07:32.308Z,97418.66
2023-01-30T14:10:02.063Z,97412.53
2023-01-30T14:12:34.662Z,97409.34
2023-01-30T14:15:13.743Z,97400.03
2023-01-30T14:18:05.411Z,97409.84
2023-01-30T14:20:35.194Z,97411.13
2023-01-30T14:23:20.727Z,97422.91
2023-01-30T14:25:53.000Z,97425.63
2023-01-30T14:28:19.914Z,97420.47
2023-01-30T14:30:49.320Z,97413.88
2023-01-30T14:33:19.273Z,97420.75
2023-01-30T14:36:02.012Z,97428.38
2023-01-30T14:38:36.218Z,97420.25
2023-01-30T14:41:03.252Z,97422.22
2023-01-30T14:43:42.539Z,97418.56
2023-01-30T14:46:32.655Z,97421.75
2023-01-30T14:49:26.372Z,97427.63
2023-01-30T14:51:56.202Z,97433.03
2023-01-30T14:54:41.049Z,97436.94
2023-01-30T14:57:35.210Z,97430.53
2023-01-30T15:00:18.356Z,97439.38
2023-01-30T15:02:55.337Z,97429.78
2023-01-30T15:05:28.827Z,97443.28
2023-01-30T15:08:23.884Z,97420.75
2023-01-30T15:11:13.362Z,97428.84
2023-01-30T15:14:21.825Z,97422.97
2023-01-30T15:17:19.566Z,97425.72
2023-01-30T15:20:13.366Z,97434.06
2023-01-30T15:23:04.091Z,97433.84
2023-01-30T15:25:52.142Z,97446.84
2023-01-30T15:28:31.028Z,97464.06
2023-01-30T15:31:09.481Z,97458.19
2023-01-30T15:33:50.286Z,97463.34
2023-01-30T15:36:32.328Z,97468.56
2023-01-30T15:39:03.809Z,97470.53
2023-01-30T15:41:33.097Z,97465.91
2023-01-30T15:44:14.273Z,97480.41
2023-01-30T15:46:50.296Z,97493.41
2023-01-30T15:49:36.314Z,97488.75
2023-01-30T15:52:04.457Z,97488.28
2023-01-30T15:54:31.837Z,97496.84
2023-01-30T15:57:00.165Z,97503.03
2023-01-30T15:59:32.748Z,97496.91
2023-01-30T16:02:02.304Z,97494.47
2023-01-30T16:04:29.988Z,97511.41
2023-01-30T16:06:57.950Z,97520.25
2023-01-30T16:09:26.027Z,97519.03
2023-01-30T16:11:53.122Z,97540.16
2023-01-30T16:14:22.008Z,97547.06
2023-01-30T16:16:59.029Z,97555.44
2023-01-30T16:19:29.610Z,97548.81
2023-01-30T16:22:05.457Z,97563.06
2023-01-30T16:24:34.421Z,97561.84
2023-01-30T16:27:05.347Z,97565.28
2023-01-30T16:29:35.379Z,97557.16
2023-01-30T16:32:12.262Z,97554.47
2023-01-30T16:34:39.734Z,97564.53
2023-01-30T16:37:24.079Z,97563.59
2023-01-30T16:40:08.848Z,97553.25
2023-01-30T16:42:35.924Z,97553.53
2023-01-30T16:45:19.696Z,97560.88
2023-01-30T16:47:47.454Z,97572.16
2023-01-30T16:50:22.650Z,97570.19
2023-01-30T16:52:52.022Z,97568.22
2023-01-30T16:55:24.065Z,97570.00
2023-01-30T16:57:56.401Z,97567.78
2023-01-30T17:00:24.567Z,97583.25
2023-01-30T17:02:56.031Z,97583.25
2023-01-30T17:05:26.388Z,97596.03
2023-01-30T17:07:55.631Z,97600.72
2023-01-30T17:10:28.659Z,97610.03
2023-01-30T17:12:56.103Z,97635.84
2023-01-30T17:15:29.118Z,97599.53
2023-01-30T17:17:56.382Z,97623.13
2023-01-30T17:20:23.862Z,97619.69
2023-01-30T17:22:52.930Z,97611.09
2023-01-30T17:25:30.504Z,97630.50
2023-01-30T17:27:59.034Z,97627.53
2023-01-30T17:30:26.145Z,97630.25
2023-01-30T17:32:53.213Z,97635.66
2023-01-30T17:35:20.499Z,97650.66
2023-01-30T17:37:59.613Z,97644.22
2023-01-30T17:40:36.573Z,97643.47
2023-01-30T17:43:04.272Z,97638.06
2023-01-30T17:45:31.438Z,97651.59
2023-01-30T17:47:58.534Z,97644.69
2023-01-30T17:50:25.792Z,97662.41
2023-01-30T17:52:52.816Z,97659.44
2023-01-30T17:55:21.443Z,97651.81
2023-01-30T17:57:48.946Z,97654.25
2023-01-30T18:00:18.894Z,97675.88
2023-01-30T18:02:46.357Z,97667.28
2023-01-30T18:05:13.719Z,97684.25
2023-01-30T18:07:41.120Z,97687.69
2023-01-30T18:10:13.543Z,97690.66
2023-01-30T18:12:40.572Z,97701.94
2023-01-30T18:15:08.241Z,97695.31
2023-01-30T18:17:38.328Z,97683.28
2023-01-30T18:20:05.683Z,97711.06
2023-01-30T18:22:32.751Z,97709.59
2023-01-30T18:24:59.818Z,97708.09
2023-01-30T18:27:26.831Z,97717.69
2023-01-30T18:29:53.941Z,97721.13
2023-01-30T18:32:21.020Z,97730.25
2023-01-30T18:34:48.131Z,97741.09
2023-01-30T18:37:15.203Z,97733.16
2023-01-30T18:39:43.459Z,97732.44
2023-01-30T18:42:10.800Z,97760.69
2023-01-30T18:44:37.994Z,97749.88
2023-01-30T18:47:05.258Z,97747.66
2023-01-30T18:49:32.327Z,97751.09
2023-01-30T18:51:59.503Z,97769.75
2023-01-30T18:54:26.539Z,97767.50
2023-01-30T18:56:53.598Z,97762.66
2023-01-30T18:59:20.758Z,97773.47
2023-01-30T19:01:48.138Z,97775.69
2023-01-30T19:04:15.374Z,97777.41
2023-01-30T19:06:43.565Z,97781.88
2023-01-30T19:09:15.638Z,97780.41
2023-01-30T19:12:00.953Z,97795.16
2023-01-30T19:14:28.153Z,97789.00
2023-01-30T19:16:55.255Z,97794.88
2023-01-30T19:19:22.372Z,97794.13
2023-01-30T19:21:50.999Z,97816.50
2023-01-30T19:24:18.056Z,97812.31
2023-01-30T19:26:45.228Z,97814.25
2023-01-30T19:29:12.393Z,97831.22
2023-01-30T19:31:39.567Z,97837.84
2023-01-30T19:34:06.741Z,97829.75
2023-01-30T19:36:36.035Z,97862.19
2023-01-30T19:39:05.866Z,97860.91
2023-01-30T19:41:34.969Z,97857.44
2023-01-30T19:44:04.140Z,97845.88
2023-01-30T19:46:31.271Z,97858.94
2023-01-30T19:48:58.893Z,97874.88
2023-01-30T19:51:28.484Z,97872.47
2023-01-30T19:54:00.882Z,97868.25
2023-01-30T19:56:28.932Z,97861.84
2023-01-30T19:58:57.331Z,97873.66
2023-01-30T20:01:27.262Z,97889.13
2023-01-30T20:03:54.440Z,97906.09
2023-01-30T20:06:24.499Z,97904.63
2023-01-30T20:08:58.506Z,97899.69
2023-01-30T20:11:25.856Z,97898.13
2023-01-30T20:13:53.468Z,97903.53
2023-01-30T20:16:25.119Z,97922.19
2023-01-30T20:18:59.911Z,97936.91
2023-01-30T20:21:28.433Z,97943.19
2023-01-30T20:23:55.912Z,97935.94
2023-01-30T20:26:25.495Z,97938.06
2023-01-30T20:28:54.453Z,97939.75
2023-01-30T20:31:24.359Z,97947.59
2023-01-30T20:33:51.686Z,97936.06
2023-01-30T20:36:19.586Z,97942.19
2023-01-30T20:38:48.090Z,97949.81
2023-01-30T20:41:17.730Z,97940.25
2023-01-30T20:43:46.968Z,97939.75
2023-01-30T20:46:19.927Z,97954.28
2023-01-30T20:48:47.395Z,97939.56
2023-01-30T20:51:16.719Z,97929.78
2023-01-30T20:53:51.374Z,97934.25
2023-01-30T20:56:19.548Z,97941.88
2023-01-30T20:58:46.953Z,97932.56
2023-01-30T21:01:18.105Z,97948.31
2023-01-30T21:03:48.000Z,97962.09
2023-01-30T21:06:41.363Z,97962.09
2023-01-30T21:09:02.638Z,97954.47
2023-01-30T21:11:29.778Z,97955.94
2023-01-30T21:13:56.920Z,97963.59
2023-01-30T21:16:26.577Z,97960.41
2023-01-30T21:19:01.323Z,97964.16
2023-01-30T21:21:32.773Z,97966.06
2023-01-30T21:24:02.369Z,97971.22
2023-01-30T21:26:31.321Z,97984.53
2023-01-30T21:29:00.602Z,97977.19
2023-01-30T21:31:29.589Z,97994.13
2023-01-30T21:33:58.302Z,98000.75
2023-01-30T21:36:26.147Z,98004.47
2023-01-30T21:39:11.869Z,97989.47
2023-01-30T21:41:58.753Z,98003.72
2023-01-30T21:44:28.859Z,98004.00
2023-01-30T21:46:56.889Z,98032.50
2023-01-30T21:49:28.307Z,98026.56
2023-01-30T21:51:55.694Z,98032.16
2023-01-30T21:54:22.799Z,98037.94
2023-01-30T21:56:50.075Z,98061.72
2023-01-30T21:59:17.480Z,98047.09
2023-01-30T22:01:44.634Z,98035.72
2023-01-30T22:04:13.930Z,98048.19
2023-01-30T22:06:41.812Z,98040.09
2023-01-30T22:09:11.338Z,98036.19
2023-01-30T22:11:38.818Z,98030.78
2023-01-30T22:14:05.957Z,98046.72
2023-01-30T22:16:33.723Z,98040.00
2023-01-30T22:19:02.963Z,98050.81
2023-01-30T22:21:33.462Z,98063.13
2023-01-30T22:24:01.837Z,98072.41
2023-01-30T22:26:29.005Z,98080.44
2023-01-30T22:29:00.212Z,98082.47
2023-01-30T22:31:30.845Z,98087.50
2023-01-30T22:33:58.092Z,98087.09
2023-01-30T22:36:30.597Z,98104.88
2023-01-30T22:38:57.656Z,98103.25
2023-01-30T22:41:25.939Z,98106.13
2023-01-30T22:43:57.459Z,98099.97
2023-01-30T22:46:31.323Z,98109.13
2023-01-30T22:48:59.991Z,98098.03
2023-01-30T22:51:29.459Z,98086.47
2023-01-30T22:54:01.736Z,98084.09
2023-01-30T22:56:38.684Z,98114.81
2023-01-30T22:59:05.952Z,98137.88
2023-01-30T23:01:35.087Z,98133.50
2023-01-30T23:04:05.525Z,98123.47
2023-01-30T23:06:32.638Z,98135.31
2023-01-30T23:09:00.797Z,98124.03
2023-01-30T23:11:30.289Z,98130.66
2023-01-30T23:14:00.049Z,98126.75
2023-01-30T23:16:27.934Z,98124.31
2023-01-30T23:18:55.085Z,98109.81
2023-01-30T23:21:26.010Z,98123.03
2023-01-30T23:23:54.726Z,98116.13
2023-01-30T23:26:23.762Z,98118.63
2023-01-30T23:28:50.974Z,98123.28
2023-01-30T23:31:21.046Z,98115.94
2023-01-30T23:33:48.209Z,98125.06
2023-01-30T23:36:15.345Z,98128.06
2023-01-30T23:38:42.392Z,98127.28
2023-01-30T23:41:15.857Z,98123.41
2023-01-30T23:43:44.297Z,98117.72
2023-01-30T23:46:15.941Z,98108.88
2023-01-30T23:48:44.560Z,98122.09
2023-01-30T23:51:12.215Z,98122.81
2023-01-30T23:53:39.925Z,98128.69
2023-01-30T23:56:07.613Z,98119.09
2023-01-30T23:58:35.183Z,98108.78
